Aviation Digital Data Service (ADDS)

Output produced by METARs form (0640 UTC 24 March 2019)
found at http://www.aviationweather.gov/metar/data/
 
KBED 240556Z AUTO 27007KT 10SM CLR 01/M11 A3000 RMK AO2 SLP173 T00061111 10044 20006 51017
KBED 240531Z 2406/2506 28007KT P6SM SKC 
     FM241500 27011G20KT P6SM SKC 
     FM250000 25005KT P6SM BKN150
       
KBVY 240553Z AUTO 25004KT 10SM CLR M01/M11 A2998 RMK AO2 SLP151 T10061111 10044 21006 53023
KBOS 240554Z 28012G19KT 10SM FEW250 02/M11 A3000 RMK AO2 SLP159 T00171106 10061 20017 51023
KBOS 240531Z 2406/2512 28012G19KT P6SM SKC 
     FM240900 25011KT P6SM SKC 
     FM241400 25012G20KT P6SM SKC 
     FM242200 24011KT P6SM BKN150 
     FM250800 30006KT P6SM BKN030
       
KCQX 240552Z AUTO 30009G15KT 10SM CLR 02/M09 A2999 RMK AO2 SLP158 T00171089 10056 20017 51028
KCEF 240456Z AUTO 32010KT 10SM CLR 00/M11 A3005 RMK AO2 SLP184 T10021113 400561014
TAF KCEF 240200Z 2402/2508 31015G20KT 9999 SKC 510004 QNH3001INS 
     TEMPO 2402/2403 32020G30KT 520004 
     BECMG 2402/2403 30010G15KT 9999 SKC QNH3004INS 
     BECMG 2406/2407 29009KT 9999 SKC QNH3006INS 
     BECMG 2412/2413 28012G20KT 9999 SCT250 QNH2999INS 
     BECMG 2422/2423 VRB06KT 9999 BKN080 620802 QNH3000INS 
     BECMG 2506/2507 VRB06KT 9999 FEW025 BKN060 620604 QNH2998INS TX13/2420Z
TNM07/2410Z LAST NO AMDS AFT 2403 NEXT 2410
       
KFIT 240552Z AUTO 33003KT 10SM CLR M01/M12 A3001 RMK AO2 SLP166 T10061117 10022 21006 51013
KHYA 240556Z AUTO VRB06KT 10SM CLR 01/M10 A2998 RMK AO2 SLP154 T00111100 10061 20011 51027
KHYA 240531Z 2406/2506 30008G16KT P6SM SKC 
     FM240900 27007KT P6SM SKC 
     FM241400 25012G19KT P6SM SKC 
     FM250400 23007KT P6SM BKN120
       
KLWM 240554Z AUTO 27007KT 10SM CLR 01/M12 A3000 RMK AO2 SLP161 T00061117 10039 20000 51017
KGHG 240615Z AUTO VRB05G14KT 10SM CLR 01/M10 A3000 RMK AO2
KACK 240553Z AUTO 29015G21KT 10SM CLR 01/M09 A3000 RMK AO2 SLP160 T00111089 10050 20011 51025
KACK 240531Z 2406/2506 30012G20KT P6SM SKC 
     FM240900 28010KT P6SM SKC 
     FM241400 25015G24KT P6SM SKC 
     FM250000 24014KT P6SM OVC100
       
KEWB 240553Z AUTO 29015G23KT 10SM CLR 01/M09 A3002 RMK AO2 SLP165 T00061089 10044 20000 53020
KAQW 240552Z AUTO 26010KT 10SM CLR M02/M09 A3010 RMK AO2 SLP200 T10171089 11017 21028 53011 $
KOWD 240553Z AUTO 28008KT 10SM CLR 01/M11 A3002 RMK AO2 SLP165 T00111106 10050 20011 51019
KORE 240552Z AUTO 30006KT 10SM CLR M01/M12 A3004 RMK AO2 SLP179 T10111117 10017 21011 53011 TSNO
KPSF 240554Z AUTO 00000KT 10SM CLR M04/M11 A3005 RMK AO2 SLP189 T10391111 11022 21050 52008
KPSF 240535Z 2406/2506 29005KT P6SM SKC 
     FM241200 28010KT P6SM SCT250 
     FM241500 27012G20KT P6SM BKN250 
     FM242300 26008KT P6SM SCT050 SCT120 BKN250 
     FM250300 26005KT P6SM BKN050 BKN100
       
KPYM 240552Z AUTO 28009G19KT 10SM CLR 00/M10 A3001 RMK AO2 SLP161 T00001100 10044 20000 53024
KPVC 240556Z AUTO 29015G19KT 10SM CLR 02/M06 A2999 RMK AO2 SLP155 6//// T00171061 10044 20017 51024 FZRANO PNO $
KBAF 240553Z AUTO 33010G18KT 10SM CLR 00/M11 A3006 RMK AO2 SLP186 T00001106 10006 21011 53005 TSNO
KBAF 240531Z 2406/2506 31012G19KT P6SM SKC 
     FM240900 30007KT P6SM SKC 
     FM241700 25010G18KT P6SM SKC 
     FM242300 25006KT P6SM BKN150
       
KORH 240554Z AUTO 28016G25KT 10SM CLR M02/M11 A2997 RMK AO2 PK WND 29028/0510 SLP160 T10221111 10000 21022 51009
KORH 240531Z 2406/2506 28012G24KT P6SM SKC 
     FM240900 27015KT P6SM SKC 
     FM241400 25014G22KT P6SM SKC 
     FM242300 25009KT P6SM BKN150 
     FM250400 26005KT P6SM BKN110